sensor_id;sensor_type;location;lat;lon;timestamp;P1;durP1;ratioP1;P2;durP2;ratioP2
54641;SDS011;40536;53.194;5.728;2023-07-13T00:00:28;26.65;;;24.65;;
54641;SDS011;40536;53.194;5.728;2023-07-13T00:02:55;24.10;;;22.50;;
54641;SDS011;40536;53.194;5.728;2023-07-13T00:05:21;24.42;;;22.83;;
54641;SDS011;40536;53.194;5.728;2023-07-13T00:07:48;24.55;;;22.80;;
54641;SDS011;40536;53.194;5.728;2023-07-13T00:10:15;23.75;;;22.30;;
54641;SDS011;40536;53.194;5.728;2023-07-13T00:12:40;25.50;;;23.75;;
54641;SDS011;40536;53.194;5.728;2023-07-13T00:15:09;24.73;;;23.20;;
54641;SDS011;40536;53.194;5.728;2023-07-13T00:17:41;23.92;;;21.98;;
54641;SDS011;40536;53.194;5.728;2023-07-13T00:20:09;26.85;;;25.15;;
54641;SDS011;40536;53.194;5.728;2023-07-13T00:22:36;27.60;;;25.88;;
54641;SDS011;40536;53.194;5.728;2023-07-13T00:25:02;26.83;;;25.33;;
54641;SDS011;40536;53.194;5.728;2023-07-13T00:27:28;28.52;;;26.67;;
54641;SDS011;40536;53.194;5.728;2023-07-13T00:29:57;29.02;;;27.02;;
54641;SDS011;40536;53.194;5.728;2023-07-13T00:32:23;27.35;;;25.67;;
54641;SDS011;40536;53.194;5.728;2023-07-13T00:34:50;29.75;;;28.05;;
54641;SDS011;40536;53.194;5.728;2023-07-13T00:37:17;28.88;;;26.92;;
54641;SDS011;40536;53.194;5.728;2023-07-13T00:39:42;27.25;;;25.60;;
54641;SDS011;40536;53.194;5.728;2023-07-13T00:42:08;30.58;;;28.45;;
54641;SDS011;40536;53.194;5.728;2023-07-13T00:44:34;27.73;;;26.02;;
54641;SDS011;40536;53.194;5.728;2023-07-13T00:47:00;24.92;;;23.45;;
54641;SDS011;40536;53.194;5.728;2023-07-13T00:49:29;23.45;;;22.05;;
54641;SDS011;40536;53.194;5.728;2023-07-13T00:51:58;23.02;;;21.73;;
54641;SDS011;40536;53.194;5.728;2023-07-13T00:54:32;21.10;;;19.80;;
54641;SDS011;40536;53.194;5.728;2023-07-13T00:57:04;21.02;;;19.73;;
54641;SDS011;40536;53.194;5.728;2023-07-13T00:59:37;22.50;;;21.30;;
54641;SDS011;40536;53.194;5.728;2023-07-13T01:02:06;22.10;;;20.92;;
54641;SDS011;40536;53.194;5.728;2023-07-13T01:04:32;21.92;;;20.52;;
54641;SDS011;40536;53.194;5.728;2023-07-13T01:06:58;23.08;;;21.67;;
54641;SDS011;40536;53.194;5.728;2023-07-13T01:09:25;23.70;;;22.33;;
54641;SDS011;40536;53.194;5.728;2023-07-13T01:11:52;23.55;;;22.25;;
54641;SDS011;40536;53.194;5.728;2023-07-13T01:14:18;25.95;;;24.58;;
54641;SDS011;40536;53.194;5.728;2023-07-13T01:16:45;28.15;;;26.55;;
54641;SDS011;40536;53.194;5.728;2023-07-13T01:22:12;29.70;;;27.85;;
54641;SDS011;40536;53.194;5.728;2023-07-13T01:24:44;29.58;;;27.88;;
54641;SDS011;40536;53.194;5.728;2023-07-13T01:27:12;33.42;;;31.45;;
54641;SDS011;40536;53.194;5.728;2023-07-13T01:29:41;32.67;;;30.67;;
54641;SDS011;40536;53.194;5.728;2023-07-13T01:32:09;37.92;;;35.63;;
54641;SDS011;40536;53.194;5.728;2023-07-13T01:34:38;37.97;;;35.97;;
54641;SDS011;40536;53.194;5.728;2023-07-13T01:37:07;41.65;;;39.10;;
54641;SDS011;40536;53.194;5.728;2023-07-13T01:39:34;42.05;;;39.53;;
54641;SDS011;40536;53.194;5.728;2023-07-13T01:42:00;39.42;;;37.22;;
54641;SDS011;40536;53.194;5.728;2023-07-13T01:44:26;37.72;;;35.63;;
54641;SDS011;40536;53.194;5.728;2023-07-13T01:46:52;34.92;;;32.78;;
54641;SDS011;40536;53.194;5.728;2023-07-13T01:49:21;35.70;;;33.38;;
54641;SDS011;40536;53.194;5.728;2023-07-13T01:51:47;32.60;;;30.65;;
54641;SDS011;40536;53.194;5.728;2023-07-13T01:54:12;41.80;;;39.35;;
54641;SDS011;40536;53.194;5.728;2023-07-13T01:56:38;43.45;;;41.03;;
54641;SDS011;40536;53.194;5.728;2023-07-13T01:59:04;43.88;;;41.47;;
54641;SDS011;40536;53.194;5.728;2023-07-13T02:01:30;41.38;;;38.80;;
54641;SDS011;40536;53.194;5.728;2023-07-13T02:03:56;35.53;;;33.75;;
54641;SDS011;40536;53.194;5.728;2023-07-13T02:06:21;37.47;;;35.30;;
54641;SDS011;40536;53.194;5.728;2023-07-13T02:08:47;34.05;;;32.08;;
54641;SDS011;40536;53.194;5.728;2023-07-13T02:11:13;40.60;;;38.35;;
54641;SDS011;40536;53.194;5.728;2023-07-13T02:13:39;38.28;;;36.17;;
54641;SDS011;40536;53.194;5.728;2023-07-13T02:16:04;39.20;;;36.92;;
54641;SDS011;40536;53.194;5.728;2023-07-13T02:18:31;38.90;;;36.60;;
54641;SDS011;40536;53.194;5.728;2023-07-13T02:20:57;44.80;;;41.95;;
54641;SDS011;40536;53.194;5.728;2023-07-13T02:23:22;44.70;;;42.08;;
54641;SDS011;40536;53.194;5.728;2023-07-13T02:25:48;49.22;;;46.35;;
54641;SDS011;40536;53.194;5.728;2023-07-13T02:28:14;56.25;;;53.35;;
54641;SDS011;40536;53.194;5.728;2023-07-13T02:30:40;50.45;;;47.83;;
54641;SDS011;40536;53.194;5.728;2023-07-13T02:33:05;56.30;;;53.30;;
54641;SDS011;40536;53.194;5.728;2023-07-13T02:35:31;69.70;;;66.05;;
54641;SDS011;40536;53.194;5.728;2023-07-13T02:37:57;72.95;;;68.97;;
54641;SDS011;40536;53.194;5.728;2023-07-13T02:40:22;78.78;;;74.45;;
54641;SDS011;40536;53.194;5.728;2023-07-13T02:42:48;74.22;;;70.63;;
54641;SDS011;40536;53.194;5.728;2023-07-13T02:45:14;78.75;;;74.85;;
54641;SDS011;40536;53.194;5.728;2023-07-13T02:47:40;83.93;;;79.90;;
54641;SDS011;40536;53.194;5.728;2023-07-13T02:50:07;73.85;;;70.35;;
54641;SDS011;40536;53.194;5.728;2023-07-13T02:52:33;72.00;;;68.00;;
54641;SDS011;40536;53.194;5.728;2023-07-13T02:54:59;85.07;;;80.82;;
54641;SDS011;40536;53.194;5.728;2023-07-13T02:57:25;82.43;;;78.00;;
54641;SDS011;40536;53.194;5.728;2023-07-13T02:59:53;100.63;;;95.43;;
54641;SDS011;40536;53.194;5.728;2023-07-13T03:02:19;91.55;;;86.80;;
54641;SDS011;40536;53.194;5.728;2023-07-13T03:04:45;124.13;;;118.25;;
54641;SDS011;40536;53.194;5.728;2023-07-13T03:07:11;107.18;;;101.78;;
54641;SDS011;40536;53.194;5.728;2023-07-13T03:09:36;113.68;;;107.93;;
54641;SDS011;40536;53.194;5.728;2023-07-13T03:12:02;103.10;;;97.85;;
54641;SDS011;40536;53.194;5.728;2023-07-13T03:14:28;103.05;;;97.70;;
54641;SDS011;40536;53.194;5.728;2023-07-13T03:16:55;90.90;;;86.32;;
54641;SDS011;40536;53.194;5.728;2023-07-13T03:19:20;82.25;;;78.05;;
54641;SDS011;40536;53.194;5.728;2023-07-13T03:21:46;80.53;;;76.35;;
54641;SDS011;40536;53.194;5.728;2023-07-13T03:24:12;90.35;;;85.85;;
54641;SDS011;40536;53.194;5.728;2023-07-13T03:26:37;91.30;;;86.63;;
54641;SDS011;40536;53.194;5.728;2023-07-13T03:29:03;101.68;;;96.07;;
54641;SDS011;40536;53.194;5.728;2023-07-13T03:31:29;100.60;;;95.65;;
54641;SDS011;40536;53.194;5.728;2023-07-13T03:33:58;86.63;;;82.03;;
54641;SDS011;40536;53.194;5.728;2023-07-13T03:36:24;110.85;;;105.03;;
54641;SDS011;40536;53.194;5.728;2023-07-13T03:38:53;101.65;;;96.57;;
54641;SDS011;40536;53.194;5.728;2023-07-13T03:41:20;120.57;;;114.80;;
54641;SDS011;40536;53.194;5.728;2023-07-13T03:43:46;112.18;;;106.68;;
54641;SDS011;40536;53.194;5.728;2023-07-13T03:46:13;126.32;;;120.20;;
54641;SDS011;40536;53.194;5.728;2023-07-13T03:48:40;160.35;;;152.32;;
54641;SDS011;40536;53.194;5.728;2023-07-13T03:51:09;142.88;;;136.07;;
54641;SDS011;40536;53.194;5.728;2023-07-13T03:53:40;131.48;;;125.03;;
54641;SDS011;40536;53.194;5.728;2023-07-13T03:56:07;131.10;;;124.75;;
54641;SDS011;40536;53.194;5.728;2023-07-13T03:58:34;125.65;;;119.18;;
54641;SDS011;40536;53.194;5.728;2023-07-13T04:01:02;107.95;;;102.43;;
54641;SDS011;40536;53.194;5.728;2023-07-13T04:03:30;137.05;;;130.05;;
54641;SDS011;40536;53.194;5.728;2023-07-13T04:05:58;114.57;;;108.70;;
54641;SDS011;40536;53.194;5.728;2023-07-13T04:08:29;97.15;;;92.50;;
54641;SDS011;40536;53.194;5.728;2023-07-13T04:10:57;89.75;;;84.80;;
54641;SDS011;40536;53.194;5.728;2023-07-13T04:13:23;85.10;;;81.03;;
54641;SDS011;40536;53.194;5.728;2023-07-13T04:15:49;85.50;;;81.20;;
54641;SDS011;40536;53.194;5.728;2023-07-13T04:18:16;69.53;;;65.32;;
54641;SDS011;40536;53.194;5.728;2023-07-13T04:20:41;60.53;;;57.20;;
54641;SDS011;40536;53.194;5.728;2023-07-13T04:23:07;56.13;;;52.78;;
54641;SDS011;40536;53.194;5.728;2023-07-13T04:25:36;49.97;;;46.92;;
54641;SDS011;40536;53.194;5.728;2023-07-13T04:28:02;48.90;;;45.85;;
54641;SDS011;40536;53.194;5.728;2023-07-13T04:30:29;45.60;;;43.03;;
54641;SDS011;40536;53.194;5.728;2023-07-13T04:32:55;47.78;;;44.88;;
54641;SDS011;40536;53.194;5.728;2023-07-13T04:35:20;46.53;;;43.33;;
54641;SDS011;40536;53.194;5.728;2023-07-13T04:37:47;42.83;;;40.20;;
54641;SDS011;40536;53.194;5.728;2023-07-13T04:40:15;44.55;;;41.75;;
54641;SDS011;40536;53.194;5.728;2023-07-13T04:42:45;44.17;;;41.63;;
54641;SDS011;40536;53.194;5.728;2023-07-13T04:45:15;38.90;;;36.60;;
54641;SDS011;40536;53.194;5.728;2023-07-13T04:47:43;37.97;;;35.78;;
54641;SDS011;40536;53.194;5.728;2023-07-13T04:50:10;32.47;;;30.05;;
54641;SDS011;40536;53.194;5.728;2023-07-13T04:52:37;25.85;;;23.92;;
54641;SDS011;40536;53.194;5.728;2023-07-13T04:55:03;23.85;;;21.85;;
54641;SDS011;40536;53.194;5.728;2023-07-13T04:57:29;28.83;;;26.85;;
54641;SDS011;40536;53.194;5.728;2023-07-13T04:59:55;22.50;;;20.70;;
54641;SDS011;40536;53.194;5.728;2023-07-13T05:02:20;23.95;;;22.10;;
54641;SDS011;40536;53.194;5.728;2023-07-13T05:04:47;20.45;;;18.63;;
54641;SDS011;40536;53.194;5.728;2023-07-13T05:07:13;23.13;;;20.90;;
54641;SDS011;40536;53.194;5.728;2023-07-13T05:09:38;22.08;;;20.70;;
54641;SDS011;40536;53.194;5.728;2023-07-13T05:12:05;18.67;;;17.15;;
54641;SDS011;40536;53.194;5.728;2023-07-13T05:14:33;18.27;;;17.00;;
54641;SDS011;40536;53.194;5.728;2023-07-13T05:16:59;18.05;;;16.67;;
54641;SDS011;40536;53.194;5.728;2023-07-13T05:19:24;15.85;;;14.55;;
54641;SDS011;40536;53.194;5.728;2023-07-13T05:21:51;16.30;;;15.00;;
54641;SDS011;40536;53.194;5.728;2023-07-13T05:24:16;14.45;;;13.30;;
54641;SDS011;40536;53.194;5.728;2023-07-13T05:26:42;13.02;;;11.82;;
54641;SDS011;40536;53.194;5.728;2023-07-13T05:29:07;13.02;;;10.32;;
54641;SDS011;40536;53.194;5.728;2023-07-13T05:31:33;11.10;;;10.02;;
54641;SDS011;40536;53.194;5.728;2023-07-13T05:33:59;11.85;;;8.68;;
54641;SDS011;40536;53.194;5.728;2023-07-13T05:36:24;14.48;;;8.63;;
54641;SDS011;40536;53.194;5.728;2023-07-13T05:38:50;9.43;;;7.85;;
54641;SDS011;40536;53.194;5.728;2023-07-13T05:41:15;7.45;;;6.75;;
54641;SDS011;40536;53.194;5.728;2023-07-13T05:43:41;7.68;;;5.65;;
54641;SDS011;40536;53.194;5.728;2023-07-13T05:46:07;8.95;;;5.18;;
54641;SDS011;40536;53.194;5.728;2023-07-13T05:48:33;7.00;;;5.18;;
54641;SDS011;40536;53.194;5.728;2023-07-13T05:51:00;8.52;;;4.50;;
54641;SDS011;40536;53.194;5.728;2023-07-13T05:53:26;7.80;;;4.10;;
54641;SDS011;40536;53.194;5.728;2023-07-13T05:55:53;7.28;;;3.75;;
54641;SDS011;40536;53.194;5.728;2023-07-13T05:58:20;5.10;;;3.70;;
54641;SDS011;40536;53.194;5.728;2023-07-13T06:00:46;6.07;;;3.38;;
54641;SDS011;40536;53.194;5.728;2023-07-13T06:03:12;7.28;;;3.78;;
54641;SDS011;40536;53.194;5.728;2023-07-13T06:05:38;4.82;;;3.38;;
54641;SDS011;40536;53.194;5.728;2023-07-13T06:08:04;9.98;;;3.00;;
54641;SDS011;40536;53.194;5.728;2023-07-13T06:10:34;6.18;;;3.03;;
54641;SDS011;40536;53.194;5.728;2023-07-13T06:13:00;7.43;;;3.53;;
54641;SDS011;40536;53.194;5.728;2023-07-13T06:15:26;7.25;;;3.10;;
54641;SDS011;40536;53.194;5.728;2023-07-13T06:17:52;6.35;;;3.40;;
54641;SDS011;40536;53.194;5.728;2023-07-13T06:20:17;7.82;;;3.15;;
54641;SDS011;40536;53.194;5.728;2023-07-13T06:22:43;8.02;;;3.30;;
54641;SDS011;40536;53.194;5.728;2023-07-13T06:25:08;3.92;;;2.90;;
54641;SDS011;40536;53.194;5.728;2023-07-13T06:27:34;4.60;;;3.00;;
54641;SDS011;40536;53.194;5.728;2023-07-13T06:30:00;4.63;;;3.03;;
54641;SDS011;40536;53.194;5.728;2023-07-13T06:32:25;4.57;;;2.90;;
54641;SDS011;40536;53.194;5.728;2023-07-13T06:34:51;6.60;;;3.40;;
54641;SDS011;40536;53.194;5.728;2023-07-13T06:37:17;5.85;;;3.03;;
54641;SDS011;40536;53.194;5.728;2023-07-13T06:39:43;5.38;;;3.03;;
54641;SDS011;40536;53.194;5.728;2023-07-13T06:42:09;7.63;;;3.50;;
54641;SDS011;40536;53.194;5.728;2023-07-13T06:44:35;5.57;;;3.20;;
54641;SDS011;40536;53.194;5.728;2023-07-13T06:47:00;4.97;;;3.05;;
54641;SDS011;40536;53.194;5.728;2023-07-13T06:49:26;7.18;;;3.20;;
54641;SDS011;40536;53.194;5.728;2023-07-13T06:51:51;5.85;;;3.15;;
54641;SDS011;40536;53.194;5.728;2023-07-13T06:54:17;5.85;;;2.90;;
54641;SDS011;40536;53.194;5.728;2023-07-13T06:56:43;3.50;;;2.72;;
54641;SDS011;40536;53.194;5.728;2023-07-13T06:59:08;6.75;;;3.10;;
54641;SDS011;40536;53.194;5.728;2023-07-13T07:01:34;7.60;;;2.97;;
54641;SDS011;40536;53.194;5.728;2023-07-13T07:04:00;6.90;;;3.53;;
54641;SDS011;40536;53.194;5.728;2023-07-13T07:06:25;6.22;;;2.90;;
54641;SDS011;40536;53.194;5.728;2023-07-13T07:08:54;8.80;;;3.10;;
54641;SDS011;40536;53.194;5.728;2023-07-13T07:11:24;5.10;;;3.23;;
54641;SDS011;40536;53.194;5.728;2023-07-13T07:13:51;5.78;;;3.30;;
54641;SDS011;40536;53.194;5.728;2023-07-13T07:16:18;7.45;;;3.22;;
54641;SDS011;40536;53.194;5.728;2023-07-13T07:18:45;5.30;;;3.20;;
54641;SDS011;40536;53.194;5.728;2023-07-13T07:21:11;6.57;;;2.85;;
54641;SDS011;40536;53.194;5.728;2023-07-13T07:23:39;5.60;;;3.08;;
54641;SDS011;40536;53.194;5.728;2023-07-13T07:26:05;6.18;;;3.00;;
54641;SDS011;40536;53.194;5.728;2023-07-13T07:28:30;5.38;;;2.95;;
54641;SDS011;40536;53.194;5.728;2023-07-13T07:30:57;6.28;;;3.10;;
54641;SDS011;40536;53.194;5.728;2023-07-13T07:33:23;8.18;;;3.63;;
54641;SDS011;40536;53.194;5.728;2023-07-13T07:35:49;6.75;;;3.47;;
54641;SDS011;40536;53.194;5.728;2023-07-13T07:38:16;5.57;;;3.00;;
54641;SDS011;40536;53.194;5.728;2023-07-13T07:40:41;5.68;;;3.30;;
54641;SDS011;40536;53.194;5.728;2023-07-13T07:43:08;5.93;;;3.20;;
54641;SDS011;40536;53.194;5.728;2023-07-13T07:45:38;7.65;;;3.30;;
54641;SDS011;40536;53.194;5.728;2023-07-13T07:48:05;6.30;;;3.60;;
54641;SDS011;40536;53.194;5.728;2023-07-13T07:50:31;5.82;;;3.88;;
54641;SDS011;40536;53.194;5.728;2023-07-13T07:52:59;6.63;;;3.35;;
54641;SDS011;40536;53.194;5.728;2023-07-13T07:55:27;5.25;;;3.05;;
54641;SDS011;40536;53.194;5.728;2023-07-13T07:57:53;6.45;;;3.47;;
54641;SDS011;40536;53.194;5.728;2023-07-13T08:00:20;7.40;;;3.35;;
54641;SDS011;40536;53.194;5.728;2023-07-13T08:02:46;6.18;;;3.30;;
54641;SDS011;40536;53.194;5.728;2023-07-13T08:05:13;8.90;;;3.58;;
54641;SDS011;40536;53.194;5.728;2023-07-13T08:07:39;5.45;;;3.10;;
54641;SDS011;40536;53.194;5.728;2023-07-13T08:10:09;4.38;;;2.90;;
54641;SDS011;40536;53.194;5.728;2023-07-13T08:12:38;4.80;;;2.60;;
54641;SDS011;40536;53.194;5.728;2023-07-13T08:15:05;6.30;;;3.05;;
54641;SDS011;40536;53.194;5.728;2023-07-13T08:17:34;5.30;;;2.47;;
54641;SDS011;40536;53.194;5.728;2023-07-13T08:20:00;5.30;;;2.92;;
54641;SDS011;40536;53.194;5.728;2023-07-13T08:22:26;5.88;;;2.70;;
54641;SDS011;40536;53.194;5.728;2023-07-13T08:24:52;5.93;;;2.90;;
54641;SDS011;40536;53.194;5.728;2023-07-13T08:27:23;10.27;;;3.10;;
54641;SDS011;40536;53.194;5.728;2023-07-13T08:29:49;5.47;;;2.58;;
54641;SDS011;40536;53.194;5.728;2023-07-13T08:32:16;5.97;;;3.33;;
54641;SDS011;40536;53.194;5.728;2023-07-13T08:34:43;6.65;;;3.00;;
54641;SDS011;40536;53.194;5.728;2023-07-13T08:37:09;4.90;;;2.90;;
54641;SDS011;40536;53.194;5.728;2023-07-13T08:39:35;5.53;;;2.70;;
54641;SDS011;40536;53.194;5.728;2023-07-13T08:42:11;3.97;;;2.42;;
54641;SDS011;40536;53.194;5.728;2023-07-13T08:47:03;6.43;;;2.92;;
54641;SDS011;40536;53.194;5.728;2023-07-13T08:49:31;6.88;;;2.70;;
54641;SDS011;40536;53.194;5.728;2023-07-13T08:52:08;5.57;;;2.60;;
54641;SDS011;40536;53.194;5.728;2023-07-13T08:54:58;5.85;;;2.80;;
54641;SDS011;40536;53.194;5.728;2023-07-13T08:57:38;5.43;;;2.72;;
54641;SDS011;40536;53.194;5.728;2023-07-13T09:00:09;5.15;;;2.70;;
54641;SDS011;40536;53.194;5.728;2023-07-13T09:05:27;9.10;;;2.90;;
54641;SDS011;40536;53.194;5.728;2023-07-13T09:11:06;6.30;;;2.85;;
54641;SDS011;40536;53.194;5.728;2023-07-13T09:14:06;5.95;;;2.92;;
54641;SDS011;40536;53.194;5.728;2023-07-13T09:16:50;4.40;;;2.70;;
54641;SDS011;40536;53.194;5.728;2023-07-13T09:19:20;4.40;;;2.70;;
54641;SDS011;40536;53.194;5.728;2023-07-13T09:21:51;4.40;;;2.45;;
54641;SDS011;40536;53.194;5.728;2023-07-13T09:27:17;5.85;;;2.42;;
54641;SDS011;40536;53.194;5.728;2023-07-13T09:30:02;4.10;;;2.60;;
54641;SDS011;40536;53.194;5.728;2023-07-13T09:32:43;5.75;;;2.30;;
54641;SDS011;40536;53.194;5.728;2023-07-13T09:35:14;4.88;;;2.40;;
54641;SDS011;40536;53.194;5.728;2023-07-13T09:37:44;4.60;;;2.45;;
54641;SDS011;40536;53.194;5.728;2023-07-13T09:40:24;3.70;;;2.65;;
54641;SDS011;40536;53.194;5.728;2023-07-13T09:43:00;7.95;;;2.67;;
54641;SDS011;40536;53.194;5.728;2023-07-13T09:45:29;5.47;;;2.50;;
54641;SDS011;40536;53.194;5.728;2023-07-13T09:48:10;4.72;;;2.50;;
54641;SDS011;40536;53.194;5.728;2023-07-13T09:50:38;5.40;;;2.55;;
54641;SDS011;40536;53.194;5.728;2023-07-13T09:53:09;4.50;;;2.70;;
54641;SDS011;40536;53.194;5.728;2023-07-13T09:55:47;5.78;;;2.50;;
54641;SDS011;40536;53.194;5.728;2023-07-13T09:58:14;4.63;;;2.80;;
54641;SDS011;40536;53.194;5.728;2023-07-13T10:03:31;6.35;;;3.33;;
54641;SDS011;40536;53.194;5.728;2023-07-13T10:06:36;7.30;;;2.83;;
54641;SDS011;40536;53.194;5.728;2023-07-13T10:08:55;5.68;;;3.20;;
54641;SDS011;40536;53.194;5.728;2023-07-13T10:11:29;4.95;;;2.90;;
54641;SDS011;40536;53.194;5.728;2023-07-13T10:13:56;6.20;;;2.88;;
54641;SDS011;40536;53.194;5.728;2023-07-13T10:16:25;6.70;;;2.80;;
54641;SDS011;40536;53.194;5.728;2023-07-13T10:18:58;6.03;;;3.30;;
54641;SDS011;40536;53.194;5.728;2023-07-13T10:21:28;5.30;;;3.10;;
54641;SDS011;40536;53.194;5.728;2023-07-13T10:24:02;7.85;;;3.10;;
54641;SDS011;40536;53.194;5.728;2023-07-13T10:26:50;8.18;;;3.20;;
54641;SDS011;40536;53.194;5.728;2023-07-13T10:29:24;5.13;;;2.95;;
54641;SDS011;40536;53.194;5.728;2023-07-13T10:31:52;5.95;;;3.10;;
54641;SDS011;40536;53.194;5.728;2023-07-13T10:34:18;7.35;;;2.80;;
54641;SDS011;40536;53.194;5.728;2023-07-13T10:36:45;7.40;;;3.05;;
54641;SDS011;40536;53.194;5.728;2023-07-13T10:39:17;6.88;;;3.00;;
54641;SDS011;40536;53.194;5.728;2023-07-13T10:41:55;7.45;;;2.83;;
54641;SDS011;40536;53.194;5.728;2023-07-13T10:44:26;6.03;;;2.95;;
54641;SDS011;40536;53.194;5.728;2023-07-13T10:47:13;7.13;;;3.00;;
54641;SDS011;40536;53.194;5.728;2023-07-13T10:49:42;6.32;;;3.45;;
54641;SDS011;40536;53.194;5.728;2023-07-13T10:55:31;4.82;;;2.95;;
54641;SDS011;40536;53.194;5.728;2023-07-13T10:58:01;4.97;;;3.03;;
54641;SDS011;40536;53.194;5.728;2023-07-13T11:00:41;6.30;;;2.63;;
54641;SDS011;40536;53.194;5.728;2023-07-13T11:03:10;5.72;;;2.90;;
54641;SDS011;40536;53.194;5.728;2023-07-13T11:05:40;7.05;;;2.85;;
54641;SDS011;40536;53.194;5.728;2023-07-13T11:08:13;6.22;;;3.38;;
54641;SDS011;40536;53.194;5.728;2023-07-13T11:10:54;7.05;;;3.30;;
54641;SDS011;40536;53.194;5.728;2023-07-13T11:16:35;7.10;;;2.67;;
54641;SDS011;40536;53.194;5.728;2023-07-13T11:24:48;6.43;;;2.80;;
54641;SDS011;40536;53.194;5.728;2023-07-13T11:27:21;5.70;;;3.10;;
54641;SDS011;40536;53.194;5.728;2023-07-13T11:30:21;8.02;;;3.55;;
54641;SDS011;40536;53.194;5.728;2023-07-13T11:32:45;7.15;;;3.10;;
54641;SDS011;40536;53.194;5.728;2023-07-13T11:35:31;7.22;;;3.10;;
54641;SDS011;40536;53.194;5.728;2023-07-13T11:38:00;7.15;;;3.05;;
54641;SDS011;40536;53.194;5.728;2023-07-13T11:40:28;7.10;;;3.05;;
54641;SDS011;40536;53.194;5.728;2023-07-13T11:43:01;7.07;;;3.08;;
54641;SDS011;40536;53.194;5.728;2023-07-13T11:45:27;5.95;;;3.72;;
54641;SDS011;40536;53.194;5.728;2023-07-13T11:47:53;7.05;;;3.17;;
54641;SDS011;40536;53.194;5.728;2023-07-13T11:50:22;7.38;;;3.30;;
54641;SDS011;40536;53.194;5.728;2023-07-13T11:52:50;7.50;;;3.10;;
54641;SDS011;40536;53.194;5.728;2023-07-13T11:55:20;8.52;;;3.60;;
54641;SDS011;40536;53.194;5.728;2023-07-13T12:00:21;7.60;;;3.55;;
54641;SDS011;40536;53.194;5.728;2023-07-13T12:02:50;6.43;;;3.30;;
54641;SDS011;40536;53.194;5.728;2023-07-13T12:05:21;6.10;;;3.20;;
54641;SDS011;40536;53.194;5.728;2023-07-13T12:07:48;6.28;;;3.50;;
54641;SDS011;40536;53.194;5.728;2023-07-13T12:15:19;8.98;;;4.53;;
54641;SDS011;40536;53.194;5.728;2023-07-13T12:17:47;7.32;;;3.35;;
54641;SDS011;40536;53.194;5.728;2023-07-13T12:20:21;8.18;;;4.05;;
54641;SDS011;40536;53.194;5.728;2023-07-13T12:22:50;6.68;;;3.50;;
54641;SDS011;40536;53.194;5.728;2023-07-13T12:25:17;8.73;;;3.78;;
54641;SDS011;40536;53.194;5.728;2023-07-13T12:27:46;8.38;;;3.50;;
54641;SDS011;40536;53.194;5.728;2023-07-13T12:33:06;9.30;;;3.88;;
54641;SDS011;40536;53.194;5.728;2023-07-13T12:35:44;6.43;;;3.70;;
54641;SDS011;40536;53.194;5.728;2023-07-13T12:38:17;7.75;;;4.13;;
54641;SDS011;40536;53.194;5.728;2023-07-13T12:40:45;6.82;;;3.60;;
54641;SDS011;40536;53.194;5.728;2023-07-13T12:43:22;8.18;;;3.80;;
54641;SDS011;40536;53.194;5.728;2023-07-13T12:45:55;7.50;;;3.60;;
54641;SDS011;40536;53.194;5.728;2023-07-13T12:48:24;7.05;;;3.40;;
54641;SDS011;40536;53.194;5.728;2023-07-13T12:50:51;8.68;;;4.18;;
54641;SDS011;40536;53.194;5.728;2023-07-13T12:53:23;8.02;;;3.80;;
54641;SDS011;40536;53.194;5.728;2023-07-13T12:55:58;9.38;;;3.60;;
54641;SDS011;40536;53.194;5.728;2023-07-13T12:58:27;7.97;;;4.25;;
54641;SDS011;40536;53.194;5.728;2023-07-13T13:00:56;8.30;;;4.55;;
54641;SDS011;40536;53.194;5.728;2023-07-13T13:03:26;8.65;;;4.45;;
54641;SDS011;40536;53.194;5.728;2023-07-13T13:05:56;7.47;;;4.13;;
54641;SDS011;40536;53.194;5.728;2023-07-13T13:08:24;10.88;;;4.07;;
54641;SDS011;40536;53.194;5.728;2023-07-13T13:10:50;8.77;;;3.97;;
54641;SDS011;40536;53.194;5.728;2023-07-13T13:13:17;8.98;;;4.35;;
54641;SDS011;40536;53.194;5.728;2023-07-13T13:15:43;10.55;;;4.25;;
54641;SDS011;40536;53.194;5.728;2023-07-13T13:18:13;9.23;;;4.55;;
54641;SDS011;40536;53.194;5.728;2023-07-13T13:20:41;11.15;;;4.63;;
54641;SDS011;40536;53.194;5.728;2023-07-13T13:23:10;8.90;;;4.40;;
54641;SDS011;40536;53.194;5.728;2023-07-13T13:25:42;13.82;;;4.45;;
54641;SDS011;40536;53.194;5.728;2023-07-13T13:28:16;7.60;;;4.07;;
54641;SDS011;40536;53.194;5.728;2023-07-13T13:30:43;12.63;;;5.47;;
54641;SDS011;40536;53.194;5.728;2023-07-13T13:33:11;8.90;;;4.18;;
54641;SDS011;40536;53.194;5.728;2023-07-13T13:35:40;6.85;;;4.20;;
54641;SDS011;40536;53.194;5.728;2023-07-13T13:38:26;7.45;;;3.95;;
54641;SDS011;40536;53.194;5.728;2023-07-13T13:40:52;9.57;;;4.38;;
54641;SDS011;40536;53.194;5.728;2023-07-13T13:43:21;11.40;;;4.80;;
54641;SDS011;40536;53.194;5.728;2023-07-13T13:45:51;9.25;;;4.78;;
54641;SDS011;40536;53.194;5.728;2023-07-13T13:48:20;8.23;;;5.20;;
54641;SDS011;40536;53.194;5.728;2023-07-13T13:50:56;8.25;;;6.35;;
54641;SDS011;40536;53.194;5.728;2023-07-13T13:53:22;11.73;;;5.82;;
54641;SDS011;40536;53.194;5.728;2023-07-13T13:55:49;11.80;;;6.65;;
54641;SDS011;40536;53.194;5.728;2023-07-13T13:58:15;8.45;;;5.88;;
54641;SDS011;40536;53.194;5.728;2023-07-13T14:00:41;9.38;;;5.82;;
54641;SDS011;40536;53.194;5.728;2023-07-13T14:03:19;11.38;;;5.43;;
54641;SDS011;40536;53.194;5.728;2023-07-13T14:05:47;10.23;;;4.97;;
54641;SDS011;40536;53.194;5.728;2023-07-13T14:08:14;9.27;;;5.00;;
54641;SDS011;40536;53.194;5.728;2023-07-13T14:10:42;6.97;;;5.10;;
54641;SDS011;40536;53.194;5.728;2023-07-13T14:13:15;14.73;;;5.85;;
54641;SDS011;40536;53.194;5.728;2023-07-13T14:15:52;9.13;;;5.20;;
54641;SDS011;40536;53.194;5.728;2023-07-13T14:18:19;12.35;;;4.78;;
54641;SDS011;40536;53.194;5.728;2023-07-13T14:20:45;7.78;;;4.85;;
54641;SDS011;40536;53.194;5.728;2023-07-13T14:23:15;7.38;;;5.10;;
54641;SDS011;40536;53.194;5.728;2023-07-13T14:25:42;9.80;;;5.32;;
54641;SDS011;40536;53.194;5.728;2023-07-13T14:30:50;8.73;;;5.30;;
54641;SDS011;40536;53.194;5.728;2023-07-13T14:33:16;8.50;;;5.05;;
54641;SDS011;40536;53.194;5.728;2023-07-13T14:35:42;8.30;;;5.18;;
54641;SDS011;40536;53.194;5.728;2023-07-13T14:38:15;10.10;;;6.60;;
54641;SDS011;40536;53.194;5.728;2023-07-13T14:40:45;8.32;;;5.05;;
54641;SDS011;40536;53.194;5.728;2023-07-13T14:43:11;8.13;;;6.18;;
54641;SDS011;40536;53.194;5.728;2023-07-13T14:45:39;10.40;;;5.50;;
54641;SDS011;40536;53.194;5.728;2023-07-13T14:48:21;17.42;;;5.78;;
54641;SDS011;40536;53.194;5.728;2023-07-13T14:50:55;10.10;;;5.30;;
54641;SDS011;40536;53.194;5.728;2023-07-13T14:53:27;10.32;;;5.65;;
54641;SDS011;40536;53.194;5.728;2023-07-13T14:55:53;9.43;;;5.18;;
54641;SDS011;40536;53.194;5.728;2023-07-13T14:58:18;8.07;;;5.28;;
54641;SDS011;40536;53.194;5.728;2023-07-13T15:00:44;9.85;;;5.38;;
54641;SDS011;40536;53.194;5.728;2023-07-13T15:03:21;9.00;;;5.30;;
54641;SDS011;40536;53.194;5.728;2023-07-13T15:05:50;10.43;;;5.90;;
54641;SDS011;40536;53.194;5.728;2023-07-13T15:08:18;9.75;;;5.95;;
54641;SDS011;40536;53.194;5.728;2023-07-13T15:10:43;9.77;;;5.40;;
54641;SDS011;40536;53.194;5.728;2023-07-13T15:13:14;8.55;;;5.25;;
54641;SDS011;40536;53.194;5.728;2023-07-13T15:15:42;13.80;;;6.10;;
54641;SDS011;40536;53.194;5.728;2023-07-13T15:18:13;10.52;;;5.88;;
54641;SDS011;40536;53.194;5.728;2023-07-13T15:20:42;13.88;;;6.03;;
54641;SDS011;40536;53.194;5.728;2023-07-13T15:23:10;8.93;;;6.18;;
54641;SDS011;40536;53.194;5.728;2023-07-13T15:25:36;10.60;;;6.13;;